sensor_id;sensor_type;location;lat;lon;timestamp;P1;durP1;ratioP1;P2;durP2;ratioP2
1128;SDS011;553;51.038;7.216;2023-07-24T00:02:23;5.57;;;5.07;;
1128;SDS011;553;51.038;7.216;2023-07-24T00:04:50;6.07;;;5.47;;
1128;SDS011;553;51.038;7.216;2023-07-24T00:07:16;5.50;;;4.20;;
1128;SDS011;553;51.038;7.216;2023-07-24T00:09:43;6.30;;;4.73;;
1128;SDS011;553;51.038;7.216;2023-07-24T00:12:10;6.30;;;5.20;;
1128;SDS011;553;51.038;7.216;2023-07-24T00:14:37;6.93;;;4.70;;
1128;SDS011;553;51.038;7.216;2023-07-24T00:17:04;5.10;;;4.60;;
1128;SDS011;553;51.038;7.216;2023-07-24T00:19:31;5.47;;;4.70;;
1128;SDS011;553;51.038;7.216;2023-07-24T00:21:57;6.57;;;4.77;;
1128;SDS011;553;51.038;7.216;2023-07-24T00:24:24;5.20;;;4.13;;
1128;SDS011;553;51.038;7.216;2023-07-24T00:26:51;5.90;;;4.97;;
1128;SDS011;553;51.038;7.216;2023-07-24T00:29:18;7.20;;;4.33;;
1128;SDS011;553;51.038;7.216;2023-07-24T00:31:44;7.90;;;4.93;;
1128;SDS011;553;51.038;7.216;2023-07-24T00:34:11;7.57;;;5.00;;
1128;SDS011;553;51.038;7.216;2023-07-24T00:36:39;7.93;;;4.90;;
1128;SDS011;553;51.038;7.216;2023-07-24T00:39:05;7.27;;;4.50;;
1128;SDS011;553;51.038;7.216;2023-07-24T00:41:32;5.60;;;4.43;;
1128;SDS011;553;51.038;7.216;2023-07-24T00:43:59;5.13;;;4.60;;
1128;SDS011;553;51.038;7.216;2023-07-24T00:46:26;6.70;;;4.70;;
1128;SDS011;553;51.038;7.216;2023-07-24T00:48:59;6.53;;;5.13;;
1128;SDS011;553;51.038;7.216;2023-07-24T00:51:28;5.40;;;4.73;;
1128;SDS011;553;51.038;7.216;2023-07-24T00:54:00;5.37;;;4.13;;
1128;SDS011;553;51.038;7.216;2023-07-24T00:56:28;6.40;;;4.80;;
1128;SDS011;553;51.038;7.216;2023-07-24T00:58:57;5.33;;;3.70;;
1128;SDS011;553;51.038;7.216;2023-07-24T01:01:25;7.10;;;4.50;;
1128;SDS011;553;51.038;7.216;2023-07-24T01:03:52;7.33;;;4.67;;
1128;SDS011;553;51.038;7.216;2023-07-24T01:06:19;6.00;;;4.40;;
1128;SDS011;553;51.038;7.216;2023-07-24T01:08:46;5.30;;;3.83;;
1128;SDS011;553;51.038;7.216;2023-07-24T01:11:18;7.20;;;4.60;;
1128;SDS011;553;51.038;7.216;2023-07-24T01:13:56;6.60;;;4.60;;
1128;SDS011;553;51.038;7.216;2023-07-24T01:16:45;6.27;;;4.13;;
1128;SDS011;553;51.038;7.216;2023-07-24T01:19:21;8.20;;;4.67;;
1128;SDS011;553;51.038;7.216;2023-07-24T01:22:02;5.83;;;4.67;;
1128;SDS011;553;51.038;7.216;2023-07-24T01:24:58;5.87;;;4.20;;
1128;SDS011;553;51.038;7.216;2023-07-24T01:27:48;5.40;;;4.63;;
1128;SDS011;553;51.038;7.216;2023-07-24T01:30:17;6.60;;;4.80;;
1128;SDS011;553;51.038;7.216;2023-07-24T01:32:46;6.20;;;4.50;;
1128;SDS011;553;51.038;7.216;2023-07-24T01:35:15;4.43;;;4.00;;
1128;SDS011;553;51.038;7.216;2023-07-24T01:37:43;5.03;;;4.53;;
1128;SDS011;553;51.038;7.216;2023-07-24T01:40:11;5.00;;;4.40;;
1128;SDS011;553;51.038;7.216;2023-07-24T01:42:38;5.73;;;4.83;;
1128;SDS011;553;51.038;7.216;2023-07-24T01:45:06;4.97;;;4.47;;
1128;SDS011;553;51.038;7.216;2023-07-24T01:47:33;5.80;;;5.17;;
1128;SDS011;553;51.038;7.216;2023-07-24T01:50:00;5.63;;;4.50;;
1128;SDS011;553;51.038;7.216;2023-07-24T01:52:27;6.70;;;4.00;;
1128;SDS011;553;51.038;7.216;2023-07-24T01:54:54;5.57;;;4.40;;
1128;SDS011;553;51.038;7.216;2023-07-24T01:57:20;6.50;;;4.80;;
1128;SDS011;553;51.038;7.216;2023-07-24T01:59:47;6.57;;;4.37;;
1128;SDS011;553;51.038;7.216;2023-07-24T02:02:15;5.70;;;4.43;;
1128;SDS011;553;51.038;7.216;2023-07-24T02:04:42;5.33;;;4.80;;
1128;SDS011;553;51.038;7.216;2023-07-24T02:07:09;6.93;;;4.90;;
1128;SDS011;553;51.038;7.216;2023-07-24T02:09:35;11.37;;;4.87;;
1128;SDS011;553;51.038;7.216;2023-07-24T02:12:02;6.17;;;4.53;;
1128;SDS011;553;51.038;7.216;2023-07-24T02:14:29;6.73;;;4.17;;
1128;SDS011;553;51.038;7.216;2023-07-24T02:16:56;5.97;;;4.70;;
1128;SDS011;553;51.038;7.216;2023-07-24T02:19:23;6.03;;;4.70;;
1128;SDS011;553;51.038;7.216;2023-07-24T02:21:50;5.87;;;4.47;;
1128;SDS011;553;51.038;7.216;2023-07-24T02:24:16;6.60;;;4.60;;
1128;SDS011;553;51.038;7.216;2023-07-24T02:26:43;4.80;;;4.30;;
1128;SDS011;553;51.038;7.216;2023-07-24T02:29:10;7.93;;;4.13;;
1128;SDS011;553;51.038;7.216;2023-07-24T02:31:37;6.67;;;4.27;;
1128;SDS011;553;51.038;7.216;2023-07-24T02:34:04;5.37;;;4.17;;
1128;SDS011;553;51.038;7.216;2023-07-24T02:36:31;6.20;;;4.20;;
1128;SDS011;553;51.038;7.216;2023-07-24T02:38:58;5.87;;;4.23;;
1128;SDS011;553;51.038;7.216;2023-07-24T02:41:25;6.50;;;4.87;;
1128;SDS011;553;51.038;7.216;2023-07-24T02:43:51;5.60;;;4.63;;
1128;SDS011;553;51.038;7.216;2023-07-24T02:46:18;6.60;;;4.83;;
1128;SDS011;553;51.038;7.216;2023-07-24T02:48:45;6.80;;;4.50;;
1128;SDS011;553;51.038;7.216;2023-07-24T02:51:12;6.73;;;4.50;;
1128;SDS011;553;51.038;7.216;2023-07-24T02:53:38;5.40;;;4.57;;
1128;SDS011;553;51.038;7.216;2023-07-24T02:56:05;6.00;;;4.40;;
1128;SDS011;553;51.038;7.216;2023-07-24T02:58:32;5.60;;;4.70;;
1128;SDS011;553;51.038;7.216;2023-07-24T03:01:02;5.80;;;4.50;;
1128;SDS011;553;51.038;7.216;2023-07-24T03:03:33;7.70;;;5.47;;
1128;SDS011;553;51.038;7.216;2023-07-24T03:06:01;4.30;;;3.83;;
1128;SDS011;553;51.038;7.216;2023-07-24T03:08:27;8.30;;;4.90;;
1128;SDS011;553;51.038;7.216;2023-07-24T03:10:55;6.20;;;4.40;;
1128;SDS011;553;51.038;7.216;2023-07-24T03:13:21;8.00;;;4.80;;
1128;SDS011;553;51.038;7.216;2023-07-24T03:15:52;6.43;;;4.93;;
1128;SDS011;553;51.038;7.216;2023-07-24T03:18:23;5.87;;;3.83;;
1128;SDS011;553;51.038;7.216;2023-07-24T03:20:50;6.23;;;5.10;;
1128;SDS011;553;51.038;7.216;2023-07-24T03:23:17;7.60;;;5.17;;
1128;SDS011;553;51.038;7.216;2023-07-24T03:25:44;8.80;;;4.80;;
1128;SDS011;553;51.038;7.216;2023-07-24T03:28:10;6.47;;;5.20;;
1128;SDS011;553;51.038;7.216;2023-07-24T03:30:37;6.43;;;4.47;;
1128;SDS011;553;51.038;7.216;2023-07-24T03:33:04;7.93;;;5.97;;
1128;SDS011;553;51.038;7.216;2023-07-24T03:35:32;10.80;;;5.20;;
1128;SDS011;553;51.038;7.216;2023-07-24T03:37:59;6.40;;;4.37;;
1128;SDS011;553;51.038;7.216;2023-07-24T03:40:27;7.53;;;4.97;;
1128;SDS011;553;51.038;7.216;2023-07-24T03:42:53;7.30;;;5.60;;
1128;SDS011;553;51.038;7.216;2023-07-24T03:45:21;6.87;;;4.63;;
1128;SDS011;553;51.038;7.216;2023-07-24T03:47:47;7.67;;;5.10;;
1128;SDS011;553;51.038;7.216;2023-07-24T03:50:14;6.33;;;4.57;;
1128;SDS011;553;51.038;7.216;2023-07-24T03:52:41;6.93;;;4.80;;
1128;SDS011;553;51.038;7.216;2023-07-24T03:55:08;8.20;;;5.53;;
1128;SDS011;553;51.038;7.216;2023-07-24T03:57:36;8.37;;;5.13;;
1128;SDS011;553;51.038;7.216;2023-07-24T04:00:03;7.20;;;5.07;;
1128;SDS011;553;51.038;7.216;2023-07-24T04:02:37;8.67;;;5.23;;
1128;SDS011;553;51.038;7.216;2023-07-24T04:05:05;7.70;;;5.33;;
1128;SDS011;553;51.038;7.216;2023-07-24T04:07:32;6.13;;;4.70;;
1128;SDS011;553;51.038;7.216;2023-07-24T04:09:59;8.77;;;4.83;;
1128;SDS011;553;51.038;7.216;2023-07-24T04:12:28;6.97;;;5.33;;
1128;SDS011;553;51.038;7.216;2023-07-24T04:14:55;7.90;;;5.17;;
1128;SDS011;553;51.038;7.216;2023-07-24T04:17:22;6.53;;;4.67;;
1128;SDS011;553;51.038;7.216;2023-07-24T04:19:49;7.53;;;5.03;;
1128;SDS011;553;51.038;7.216;2023-07-24T04:22:16;7.87;;;5.03;;
1128;SDS011;553;51.038;7.216;2023-07-24T04:24:43;6.70;;;4.97;;
1128;SDS011;553;51.038;7.216;2023-07-24T04:27:09;10.83;;;5.73;;
1128;SDS011;553;51.038;7.216;2023-07-24T04:29:36;5.87;;;3.87;;
1128;SDS011;553;51.038;7.216;2023-07-24T04:32:03;5.70;;;4.10;;
1128;SDS011;553;51.038;7.216;2023-07-24T04:34:30;5.77;;;4.60;;
1128;SDS011;553;51.038;7.216;2023-07-24T04:36:59;7.30;;;5.20;;
1128;SDS011;553;51.038;7.216;2023-07-24T04:39:25;5.13;;;4.43;;
1128;SDS011;553;51.038;7.216;2023-07-24T04:41:52;7.10;;;5.00;;
1128;SDS011;553;51.038;7.216;2023-07-24T04:44:19;6.13;;;4.63;;
1128;SDS011;553;51.038;7.216;2023-07-24T04:46:45;6.30;;;4.33;;
1128;SDS011;553;51.038;7.216;2023-07-24T04:49:12;6.20;;;4.63;;
1128;SDS011;553;51.038;7.216;2023-07-24T04:51:39;9.60;;;5.13;;
1128;SDS011;553;51.038;7.216;2023-07-24T04:54:06;12.40;;;4.90;;
1128;SDS011;553;51.038;7.216;2023-07-24T04:56:32;8.53;;;5.43;;
1128;SDS011;553;51.038;7.216;2023-07-24T04:58:59;8.30;;;4.60;;
1128;SDS011;553;51.038;7.216;2023-07-24T05:01:26;7.63;;;4.80;;
1128;SDS011;553;51.038;7.216;2023-07-24T05:03:53;7.40;;;4.70;;
1128;SDS011;553;51.038;7.216;2023-07-24T05:06:19;12.57;;;5.83;;
1128;SDS011;553;51.038;7.216;2023-07-24T05:08:46;6.07;;;4.83;;
1128;SDS011;553;51.038;7.216;2023-07-24T05:11:13;8.70;;;5.20;;
1128;SDS011;553;51.038;7.216;2023-07-24T05:13:39;8.60;;;4.87;;
1128;SDS011;553;51.038;7.216;2023-07-24T05:16:06;6.83;;;4.90;;
1128;SDS011;553;51.038;7.216;2023-07-24T05:18:33;6.67;;;5.10;;
1128;SDS011;553;51.038;7.216;2023-07-24T05:20:59;5.97;;;4.47;;
1128;SDS011;553;51.038;7.216;2023-07-24T05:23:26;7.63;;;5.20;;
1128;SDS011;553;51.038;7.216;2023-07-24T05:26:00;6.07;;;3.80;;
1128;SDS011;553;51.038;7.216;2023-07-24T05:28:28;8.27;;;5.00;;
1128;SDS011;553;51.038;7.216;2023-07-24T05:30:59;5.93;;;4.70;;
1128;SDS011;553;51.038;7.216;2023-07-24T05:33:28;6.83;;;5.10;;
1128;SDS011;553;51.038;7.216;2023-07-24T05:35:59;5.50;;;4.00;;
1128;SDS011;553;51.038;7.216;2023-07-24T05:38:27;7.10;;;5.17;;
1128;SDS011;553;51.038;7.216;2023-07-24T05:40:55;7.23;;;4.17;;
1128;SDS011;553;51.038;7.216;2023-07-24T05:43:25;6.47;;;4.67;;
1128;SDS011;553;51.038;7.216;2023-07-24T05:45:53;9.80;;;4.67;;
1128;SDS011;553;51.038;7.216;2023-07-24T05:48:21;5.60;;;4.00;;
1128;SDS011;553;51.038;7.216;2023-07-24T05:50:48;6.10;;;4.60;;
1128;SDS011;553;51.038;7.216;2023-07-24T05:53:15;6.20;;;4.53;;
1128;SDS011;553;51.038;7.216;2023-07-24T05:55:42;7.50;;;4.30;;
1128;SDS011;553;51.038;7.216;2023-07-24T05:58:09;6.40;;;5.20;;
1128;SDS011;553;51.038;7.216;2023-07-24T06:00:36;9.50;;;5.30;;
1128;SDS011;553;51.038;7.216;2023-07-24T06:03:03;7.43;;;4.83;;
1128;SDS011;553;51.038;7.216;2023-07-24T06:05:33;5.93;;;4.73;;
1128;SDS011;553;51.038;7.216;2023-07-24T06:08:00;5.83;;;4.53;;
1128;SDS011;553;51.038;7.216;2023-07-24T06:10:27;7.40;;;4.60;;
1128;SDS011;553;51.038;7.216;2023-07-24T06:12:53;6.27;;;4.40;;
1128;SDS011;553;51.038;7.216;2023-07-24T06:15:20;6.90;;;5.70;;
1128;SDS011;553;51.038;7.216;2023-07-24T06:17:47;7.47;;;5.47;;
1128;SDS011;553;51.038;7.216;2023-07-24T06:20:17;8.67;;;6.03;;
1128;SDS011;553;51.038;7.216;2023-07-24T06:22:44;8.10;;;5.30;;
1128;SDS011;553;51.038;7.216;2023-07-24T06:25:11;7.90;;;4.77;;
1128;SDS011;553;51.038;7.216;2023-07-24T06:27:37;8.33;;;5.40;;
1128;SDS011;553;51.038;7.216;2023-07-24T06:30:04;7.57;;;5.50;;
1128;SDS011;553;51.038;7.216;2023-07-24T06:32:41;6.57;;;4.97;;
1128;SDS011;553;51.038;7.216;2023-07-24T06:35:08;6.23;;;4.70;;
1128;SDS011;553;51.038;7.216;2023-07-24T06:37:35;8.50;;;4.37;;
1128;SDS011;553;51.038;7.216;2023-07-24T06:40:01;7.03;;;5.00;;
1128;SDS011;553;51.038;7.216;2023-07-24T06:42:29;6.63;;;4.10;;
1128;SDS011;553;51.038;7.216;2023-07-24T06:44:55;7.67;;;4.67;;
1128;SDS011;553;51.038;7.216;2023-07-24T06:47:22;10.80;;;5.47;;
1128;SDS011;553;51.038;7.216;2023-07-24T06:49:49;5.00;;;4.33;;
1128;SDS011;553;51.038;7.216;2023-07-24T06:52:16;6.53;;;4.63;;
1128;SDS011;553;51.038;7.216;2023-07-24T06:54:42;7.93;;;4.20;;
1128;SDS011;553;51.038;7.216;2023-07-24T06:57:09;5.67;;;4.77;;
1128;SDS011;553;51.038;7.216;2023-07-24T06:59:36;6.23;;;4.03;;
1128;SDS011;553;51.038;7.216;2023-07-24T07:02:03;7.03;;;4.60;;
1128;SDS011;553;51.038;7.216;2023-07-24T07:04:30;7.73;;;4.97;;
1128;SDS011;553;51.038;7.216;2023-07-24T07:06:56;8.73;;;4.70;;
1128;SDS011;553;51.038;7.216;2023-07-24T07:09:23;6.73;;;4.60;;
1128;SDS011;553;51.038;7.216;2023-07-24T07:11:50;5.97;;;4.80;;
1128;SDS011;553;51.038;7.216;2023-07-24T07:14:17;5.97;;;4.67;;
1128;SDS011;553;51.038;7.216;2023-07-24T07:16:44;6.00;;;4.03;;
1128;SDS011;553;51.038;7.216;2023-07-24T07:19:13;7.80;;;4.50;;
1128;SDS011;553;51.038;7.216;2023-07-24T07:21:40;6.40;;;4.57;;
1128;SDS011;553;51.038;7.216;2023-07-24T07:24:07;9.03;;;4.47;;
1128;SDS011;553;51.038;7.216;2023-07-24T07:26:34;7.33;;;4.60;;
1128;SDS011;553;51.038;7.216;2023-07-24T07:29:00;5.37;;;4.20;;
1128;SDS011;553;51.038;7.216;2023-07-24T07:31:27;6.80;;;4.13;;
1128;SDS011;553;51.038;7.216;2023-07-24T07:33:54;5.03;;;3.63;;
1128;SDS011;553;51.038;7.216;2023-07-24T07:36:20;6.03;;;3.30;;
1128;SDS011;553;51.038;7.216;2023-07-24T07:38:48;6.83;;;4.23;;
1128;SDS011;553;51.038;7.216;2023-07-24T07:41:15;5.10;;;3.73;;
1128;SDS011;553;51.038;7.216;2023-07-24T07:43:42;4.17;;;3.03;;
1128;SDS011;553;51.038;7.216;2023-07-24T07:46:09;5.93;;;4.00;;
1128;SDS011;553;51.038;7.216;2023-07-24T07:48:35;6.20;;;3.87;;
1128;SDS011;553;51.038;7.216;2023-07-24T07:51:02;7.60;;;4.00;;
1128;SDS011;553;51.038;7.216;2023-07-24T07:53:29;5.53;;;3.30;;
1128;SDS011;553;51.038;7.216;2023-07-24T07:55:58;5.50;;;3.60;;
1128;SDS011;553;51.038;7.216;2023-07-24T07:58:26;6.37;;;3.30;;
1128;SDS011;553;51.038;7.216;2023-07-24T08:00:53;5.23;;;4.10;;
1128;SDS011;553;51.038;7.216;2023-07-24T08:03:20;8.57;;;3.80;;
1128;SDS011;553;51.038;7.216;2023-07-24T08:05:47;7.13;;;3.60;;
1128;SDS011;553;51.038;7.216;2023-07-24T08:08:14;4.60;;;3.40;;
1128;SDS011;553;51.038;7.216;2023-07-24T08:10:40;4.37;;;3.03;;
1128;SDS011;553;51.038;7.216;2023-07-24T08:13:07;3.70;;;3.20;;
1128;SDS011;553;51.038;7.216;2023-07-24T08:15:34;4.40;;;3.30;;
1128;SDS011;553;51.038;7.216;2023-07-24T08:18:03;5.70;;;3.13;;
1128;SDS011;553;51.038;7.216;2023-07-24T08:20:31;6.10;;;3.37;;
1128;SDS011;553;51.038;7.216;2023-07-24T08:23:01;4.43;;;2.93;;
1128;SDS011;553;51.038;7.216;2023-07-24T08:25:27;4.80;;;3.63;;
1128;SDS011;553;51.038;7.216;2023-07-24T08:27:54;4.30;;;3.70;;
1128;SDS011;553;51.038;7.216;2023-07-24T08:30:31;5.10;;;3.97;;
1128;SDS011;553;51.038;7.216;2023-07-24T08:32:58;5.93;;;3.87;;
1128;SDS011;553;51.038;7.216;2023-07-24T08:35:26;8.60;;;4.67;;
1128;SDS011;553;51.038;7.216;2023-07-24T08:37:53;6.00;;;4.17;;
1128;SDS011;553;51.038;7.216;2023-07-24T08:40:19;5.70;;;4.50;;
1128;SDS011;553;51.038;7.216;2023-07-24T08:42:48;11.33;;;5.30;;
1128;SDS011;553;51.038;7.216;2023-07-24T08:45:16;6.47;;;3.60;;
1128;SDS011;553;51.038;7.216;2023-07-24T08:47:44;4.97;;;4.20;;
1128;SDS011;553;51.038;7.216;2023-07-24T08:50:12;4.13;;;3.73;;
1128;SDS011;553;51.038;7.216;2023-07-24T08:52:41;4.90;;;4.00;;
1128;SDS011;553;51.038;7.216;2023-07-24T08:55:13;5.10;;;4.17;;
1128;SDS011;553;51.038;7.216;2023-07-24T08:57:39;7.47;;;4.37;;
1128;SDS011;553;51.038;7.216;2023-07-24T09:00:06;4.67;;;3.60;;
1128;SDS011;553;51.038;7.216;2023-07-24T09:02:33;5.77;;;3.70;;
1128;SDS011;553;51.038;7.216;2023-07-24T09:05:02;5.37;;;4.00;;
1128;SDS011;553;51.038;7.216;2023-07-24T09:07:30;10.50;;;3.37;;
1128;SDS011;553;51.038;7.216;2023-07-24T09:09:57;4.90;;;3.73;;
1128;SDS011;553;51.038;7.216;2023-07-24T09:12:24;7.10;;;4.20;;
1128;SDS011;553;51.038;7.216;2023-07-24T09:15:03;4.67;;;3.67;;
1128;SDS011;553;51.038;7.216;2023-07-24T09:17:33;4.30;;;3.80;;
1128;SDS011;553;51.038;7.216;2023-07-24T09:20:00;4.87;;;3.83;;
1128;SDS011;553;51.038;7.216;2023-07-24T09:22:28;5.07;;;4.30;;
1128;SDS011;553;51.038;7.216;2023-07-24T09:24:56;5.07;;;4.43;;
1128;SDS011;553;51.038;7.216;2023-07-24T09:27:29;6.43;;;3.90;;
1128;SDS011;553;51.038;7.216;2023-07-24T09:29:58;5.20;;;4.20;;
1128;SDS011;553;51.038;7.216;2023-07-24T09:32:26;5.07;;;3.77;;
1128;SDS011;553;51.038;7.216;2023-07-24T09:34:53;5.23;;;4.10;;
1128;SDS011;553;51.038;7.216;2023-07-24T09:39:53;5.60;;;4.20;;
1128;SDS011;553;51.038;7.216;2023-07-24T09:42:29;5.00;;;3.77;;
1128;SDS011;553;51.038;7.216;2023-07-24T09:45:10;5.83;;;3.50;;
1128;SDS011;553;51.038;7.216;2023-07-24T09:47:36;6.13;;;3.87;;
1128;SDS011;553;51.038;7.216;2023-07-24T09:50:08;4.17;;;3.70;;
1128;SDS011;553;51.038;7.216;2023-07-24T09:52:36;4.27;;;3.80;;
1128;SDS011;553;51.038;7.216;2023-07-24T09:55:11;4.13;;;3.20;;
1128;SDS011;553;51.038;7.216;2023-07-24T09:57:41;6.40;;;3.80;;
1128;SDS011;553;51.038;7.216;2023-07-24T10:00:11;5.73;;;3.17;;
1128;SDS011;553;51.038;7.216;2023-07-24T10:02:39;5.00;;;3.83;;
1128;SDS011;553;51.038;7.216;2023-07-24T10:05:07;5.27;;;3.60;;
1128;SDS011;553;51.038;7.216;2023-07-24T10:07:34;4.33;;;3.10;;
1128;SDS011;553;51.038;7.216;2023-07-24T10:10:01;4.53;;;3.50;;
1128;SDS011;553;51.038;7.216;2023-07-24T10:12:28;4.27;;;3.30;;
1128;SDS011;553;51.038;7.216;2023-07-24T10:14:57;4.43;;;3.40;;
1128;SDS011;553;51.038;7.216;2023-07-24T10:17:35;4.80;;;3.70;;
1128;SDS011;553;51.038;7.216;2023-07-24T10:20:06;4.73;;;4.00;;
1128;SDS011;553;51.038;7.216;2023-07-24T10:22:35;6.40;;;3.13;;
1128;SDS011;553;51.038;7.216;2023-07-24T10:25:04;4.07;;;3.33;;
1128;SDS011;553;51.038;7.216;2023-07-24T10:27:35;4.63;;;3.77;;
1128;SDS011;553;51.038;7.216;2023-07-24T10:30:04;4.90;;;3.63;;
1128;SDS011;553;51.038;7.216;2023-07-24T10:32:53;7.07;;;4.10;;
1128;SDS011;553;51.038;7.216;2023-07-24T10:35:21;5.13;;;3.60;;
1128;SDS011;553;51.038;7.216;2023-07-24T10:37:58;4.43;;;3.37;;
1128;SDS011;553;51.038;7.216;2023-07-24T10:40:26;5.10;;;3.70;;
1128;SDS011;553;51.038;7.216;2023-07-24T10:43:27;5.13;;;3.60;;
1128;SDS011;553;51.038;7.216;2023-07-24T10:45:52;4.40;;;3.30;;
1128;SDS011;553;51.038;7.216;2023-07-24T10:48:21;3.80;;;3.33;;
1128;SDS011;553;51.038;7.216;2023-07-24T10:50:50;4.30;;;2.90;;
1128;SDS011;553;51.038;7.216;2023-07-24T10:53:21;4.00;;;2.87;;
1128;SDS011;553;51.038;7.216;2023-07-24T10:55:50;5.50;;;3.07;;
1128;SDS011;553;51.038;7.216;2023-07-24T10:58:18;4.57;;;3.27;;
1128;SDS011;553;51.038;7.216;2023-07-24T11:00:45;3.90;;;3.20;;
1128;SDS011;553;51.038;7.216;2023-07-24T11:03:14;5.30;;;3.37;;
1128;SDS011;553;51.038;7.216;2023-07-24T11:05:42;4.90;;;3.23;;
1128;SDS011;553;51.038;7.216;2023-07-24T11:08:19;3.90;;;3.17;;
1128;SDS011;553;51.038;7.216;2023-07-24T11:10:50;4.23;;;3.53;;
1128;SDS011;553;51.038;7.216;2023-07-24T11:13:20;3.83;;;2.87;;
1128;SDS011;553;51.038;7.216;2023-07-24T11:15:49;4.80;;;3.70;;
1128;SDS011;553;51.038;7.216;2023-07-24T11:18:16;3.77;;;3.00;;
1128;SDS011;553;51.038;7.216;2023-07-24T11:20:45;3.47;;;3.10;;
1128;SDS011;553;51.038;7.216;2023-07-24T11:23:15;3.57;;;2.97;;
1128;SDS011;553;51.038;7.216;2023-07-24T11:25:42;4.53;;;3.40;;
1128;SDS011;553;51.038;7.216;2023-07-24T11:28:11;3.60;;;3.03;;
1128;SDS011;553;51.038;7.216;2023-07-24T11:30:39;4.70;;;3.60;;
1128;SDS011;553;51.038;7.216;2023-07-24T11:33:07;4.40;;;3.53;;
1128;SDS011;553;51.038;7.216;2023-07-24T11:35:35;4.20;;;3.27;;
1128;SDS011;553;51.038;7.216;2023-07-24T11:38:05;4.30;;;3.00;;
1128;SDS011;553;51.038;7.216;2023-07-24T11:40:34;4.47;;;3.50;;
1128;SDS011;553;51.038;7.216;2023-07-24T11:43:03;4.03;;;3.47;;
1128;SDS011;553;51.038;7.216;2023-07-24T11:45:31;7.20;;;3.43;;
1128;SDS011;553;51.038;7.216;2023-07-24T11:48:09;3.50;;;3.20;;
1128;SDS011;553;51.038;7.216;2023-07-24T11:50:46;4.20;;;3.30;;
1128;SDS011;553;51.038;7.216;2023-07-24T11:53:27;4.57;;;2.90;;
1128;SDS011;553;51.038;7.216;2023-07-24T11:55:56;6.80;;;4.50;;
1128;SDS011;553;51.038;7.216;2023-07-24T11:58:28;6.53;;;4.27;;
1128;SDS011;553;51.038;7.216;2023-07-24T12:00:56;7.53;;;4.27;;
1128;SDS011;553;51.038;7.216;2023-07-24T12:03:26;10.10;;;5.07;;
1128;SDS011;553;51.038;7.216;2023-07-24T12:05:55;9.83;;;5.10;;
1128;SDS011;553;51.038;7.216;2023-07-24T12:08:32;11.07;;;4.27;;
1128;SDS011;553;51.038;7.216;2023-07-24T12:11:00;7.53;;;4.10;;
1128;SDS011;553;51.038;7.216;2023-07-24T12:13:27;3.53;;;2.00;;
1128;SDS011;553;51.038;7.216;2023-07-24T12:15:55;3.53;;;1.90;;
1128;SDS011;553;51.038;7.216;2023-07-24T12:18:22;2.70;;;1.80;;
1128;SDS011;553;51.038;7.216;2023-07-24T12:20:49;3.63;;;1.70;;
1128;SDS011;553;51.038;7.216;2023-07-24T12:23:15;2.70;;;2.07;;
1128;SDS011;553;51.038;7.216;2023-07-24T12:25:43;3.40;;;1.70;;
1128;SDS011;553;51.038;7.216;2023-07-24T12:28:10;2.80;;;1.40;;
1128;SDS011;553;51.038;7.216;2023-07-24T12:30:36;2.00;;;1.27;;
1128;SDS011;553;51.038;7.216;2023-07-24T12:33:03;2.00;;;1.50;;
1128;SDS011;553;51.038;7.216;2023-07-24T12:35:30;3.43;;;2.30;;
1128;SDS011;553;51.038;7.216;2023-07-24T12:37:57;6.30;;;2.10;;
1128;SDS011;553;51.038;7.216;2023-07-24T12:40:25;3.10;;;2.37;;
1128;SDS011;553;51.038;7.216;2023-07-24T12:42:52;2.20;;;1.63;;
1128;SDS011;553;51.038;7.216;2023-07-24T12:45:18;2.87;;;2.30;;
1128;SDS011;553;51.038;7.216;2023-07-24T12:47:45;2.20;;;1.80;;
1128;SDS011;553;51.038;7.216;2023-07-24T12:50:12;3.07;;;1.73;;
1128;SDS011;553;51.038;7.216;2023-07-24T12:52:39;2.00;;;1.60;;
1128;SDS011;553;51.038;7.216;2023-07-24T12:55:06;2.73;;;1.77;;
1128;SDS011;553;51.038;7.216;2023-07-24T12:57:33;3.50;;;2.30;;
1128;SDS011;553;51.038;7.216;2023-07-24T13:00:00;4.13;;;2.20;;
1128;SDS011;553;51.038;7.216;2023-07-24T13:02:27;3.10;;;1.87;;
1128;SDS011;553;51.038;7.216;2023-07-24T13:04:54;3.37;;;2.07;;
1128;SDS011;553;51.038;7.216;2023-07-24T13:07:21;2.60;;;1.73;;
1128;SDS011;553;51.038;7.216;2023-07-24T13:09:47;3.50;;;1.50;;
1128;SDS011;553;51.038;7.216;2023-07-24T13:12:14;3.23;;;1.90;;
1128;SDS011;553;51.038;7.216;2023-07-24T13:14:41;2.90;;;1.70;;
1128;SDS011;553;51.038;7.216;2023-07-24T13:17:09;2.60;;;1.50;;
1128;SDS011;553;51.038;7.216;2023-07-24T13:19:36;3.23;;;1.87;;
1128;SDS011;553;51.038;7.216;2023-07-24T13:22:03;2.93;;;2.10;;
1128;SDS011;553;51.038;7.216;2023-07-24T13:24:30;3.70;;;2.60;;
1128;SDS011;553;51.038;7.216;2023-07-24T13:26:56;2.73;;;1.83;;
1128;SDS011;553;51.038;7.216;2023-07-24T13:29:23;2.97;;;1.90;;
1128;SDS011;553;51.038;7.216;2023-07-24T13:31:51;3.10;;;1.77;;
1128;SDS011;553;51.038;7.216;2023-07-24T13:34:19;2.80;;;2.10;;
1128;SDS011;553;51.038;7.216;2023-07-24T13:36:46;3.50;;;2.17;;
1128;SDS011;553;51.038;7.216;2023-07-24T13:39:13;2.60;;;1.97;;
1128;SDS011;553;51.038;7.216;2023-07-24T13:41:40;2.90;;;2.27;;
1128;SDS011;553;51.038;7.216;2023-07-24T13:44:07;2.53;;;1.80;;
1128;SDS011;553;51.038;7.216;2023-07-24T13:46:34;2.53;;;1.63;;
1128;SDS011;553;51.038;7.216;2023-07-24T13:49:05;2.40;;;1.70;;
1128;SDS011;553;51.038;7.216;2023-07-24T13:51:32;2.30;;;1.90;;
1128;SDS011;553;51.038;7.216;2023-07-24T13:53:59;2.00;;;1.70;;
1128;SDS011;553;51.038;7.216;2023-07-24T13:56:28;2.03;;;1.50;;
1128;SDS011;553;51.038;7.216;2023-07-24T13:58:57;1.97;;;1.77;;
1128;SDS011;553;51.038;7.216;2023-07-24T14:01:24;2.13;;;1.47;;
1128;SDS011;553;51.038;7.216;2023-07-24T14:03:51;2.03;;;1.40;;
1128;SDS011;553;51.038;7.216;2023-07-24T14:06:18;4.63;;;1.60;;
1128;SDS011;553;51.038;7.216;2023-07-24T14:08:45;4.23;;;1.80;;
1128;SDS011;553;51.038;7.216;2023-07-24T14:11:11;2.43;;;1.57;;
1128;SDS011;553;51.038;7.216;2023-07-24T14:13:38;3.07;;;2.03;;
1128;SDS011;553;51.038;7.216;2023-07-24T14:16:05;2.23;;;1.67;;
1128;SDS011;553;51.038;7.216;2023-07-24T14:18:32;4.40;;;2.40;;
1128;SDS011;553;51.038;7.216;2023-07-24T14:20:58;3.40;;;2.07;;
1128;SDS011;553;51.038;7.216;2023-07-24T14:23:25;3.57;;;2.10;;
1128;SDS011;553;51.038;7.216;2023-07-24T14:25:52;3.40;;;2.30;;
1128;SDS011;553;51.038;7.216;2023-07-24T14:28:19;4.13;;;1.90;;
1128;SDS011;553;51.038;7.216;2023-07-24T14:30:46;3.07;;;1.87;;
1128;SDS011;553;51.038;7.216;2023-07-24T14:33:13;2.50;;;1.77;;
1128;SDS011;553;51.038;7.216;2023-07-24T14:35:40;2.50;;;1.77;;
1128;SDS011;553;51.038;7.216;2023-07-24T14:38:07;2.93;;;2.33;;
1128;SDS011;553;51.038;7.216;2023-07-24T14:40:34;2.50;;;2.00;;
1128;SDS011;553;51.038;7.216;2023-07-24T14:43:01;3.03;;;2.13;;
1128;SDS011;553;51.038;7.216;2023-07-24T14:45:32;2.33;;;1.87;;
1128;SDS011;553;51.038;7.216;2023-07-24T14:47:59;2.40;;;1.83;;
1128;SDS011;553;51.038;7.216;2023-07-24T14:50:26;4.00;;;1.93;;
1128;SDS011;553;51.038;7.216;2023-07-24T14:52:53;4.03;;;2.43;;
1128;SDS011;553;51.038;7.216;2023-07-24T14:55:20;3.07;;;2.70;;
1128;SDS011;553;51.038;7.216;2023-07-24T14:57:46;3.10;;;1.90;;
1128;SDS011;553;51.038;7.216;2023-07-24T15:00:14;2.83;;;2.10;;
1128;SDS011;553;51.038;7.216;2023-07-24T15:02:42;3.87;;;2.73;;
1128;SDS011;553;51.038;7.216;2023-07-24T15:05:09;5.13;;;3.30;;
1128;SDS011;553;51.038;7.216;2023-07-24T15:07:36;3.60;;;2.33;;
1128;SDS011;553;51.038;7.216;2023-07-24T15:10:04;3.97;;;2.50;;
1128;SDS011;553;51.038;7.216;2023-07-24T15:12:31;3.33;;;3.00;;
1128;SDS011;553;51.038;7.216;2023-07-24T15:14:58;4.10;;;3.30;;
1128;SDS011;553;51.038;7.216;2023-07-24T15:17:25;4.70;;;3.80;;
1128;SDS011;553;51.038;7.216;2023-07-24T15:19:52;10.33;;;4.00;;
1128;SDS011;553;51.038;7.216;2023-07-24T15:22:19;5.17;;;3.73;;
1128;SDS011;553;51.038;7.216;2023-07-24T15:24:46;4.60;;;3.47;;
1128;SDS011;553;51.038;7.216;2023-07-24T15:27:13;5.93;;;3.40;;
1128;SDS011;553;51.038;7.216;2023-07-24T15:29:39;3.90;;;3.37;;
1128;SDS011;553;51.038;7.216;2023-07-24T15:32:07;4.27;;;3.87;;
1128;SDS011;553;51.038;7.216;2023-07-24T15:34:34;4.30;;;3.10;;
1128;SDS011;553;51.038;7.216;2023-07-24T15:37:04;3.83;;;3.07;;
1128;SDS011;553;51.038;7.216;2023-07-24T15:39:31;6.17;;;3.23;;